sensor_id;sensor_type;location;lat;lon;timestamp;P1;durP1;ratioP1;P2;durP2;ratioP2
3249;SDS011;1637;42.020;23.992;2022-09-13T00:01:13;7.37;;;6.30;;
3249;SDS011;1637;42.020;23.992;2022-09-13T00:03:41;8.50;;;6.90;;
3249;SDS011;1637;42.020;23.992;2022-09-13T00:06:09;14.70;;;8.43;;
3249;SDS011;1637;42.020;23.992;2022-09-13T00:08:38;9.00;;;7.23;;
3249;SDS011;1637;42.020;23.992;2022-09-13T00:11:05;9.17;;;7.23;;
3249;SDS011;1637;42.020;23.992;2022-09-13T00:13:33;9.00;;;6.80;;
3249;SDS011;1637;42.020;23.992;2022-09-13T00:15:59;10.93;;;7.00;;
3249;SDS011;1637;42.020;23.992;2022-09-13T00:18:27;10.50;;;7.60;;
3249;SDS011;1637;42.020;23.992;2022-09-13T00:21:04;10.07;;;7.43;;
3249;SDS011;1637;42.020;23.992;2022-09-13T00:23:32;7.90;;;7.00;;
3249;SDS011;1637;42.020;23.992;2022-09-13T00:26:05;8.00;;;6.80;;
3249;SDS011;1637;42.020;23.992;2022-09-13T00:28:34;9.33;;;6.10;;
3249;SDS011;1637;42.020;23.992;2022-09-13T00:31:02;8.07;;;6.93;;
3249;SDS011;1637;42.020;23.992;2022-09-13T00:33:30;9.93;;;7.60;;
3249;SDS011;1637;42.020;23.992;2022-09-13T00:35:57;7.00;;;6.30;;
3249;SDS011;1637;42.020;23.992;2022-09-13T00:38:29;10.67;;;7.20;;
3249;SDS011;1637;42.020;23.992;2022-09-13T00:40:56;9.93;;;7.37;;
3249;SDS011;1637;42.020;23.992;2022-09-13T00:43:39;8.23;;;6.53;;
3249;SDS011;1637;42.020;23.992;2022-09-13T00:46:07;9.10;;;6.93;;
3249;SDS011;1637;42.020;23.992;2022-09-13T00:48:37;10.70;;;7.67;;
3249;SDS011;1637;42.020;23.992;2022-09-13T00:51:04;10.13;;;7.23;;
3249;SDS011;1637;42.020;23.992;2022-09-13T00:53:35;9.93;;;8.20;;
3249;SDS011;1637;42.020;23.992;2022-09-13T00:56:08;9.53;;;7.03;;
3249;SDS011;1637;42.020;23.992;2022-09-13T00:58:40;11.60;;;7.60;;
3249;SDS011;1637;42.020;23.992;2022-09-13T01:01:10;8.43;;;7.53;;
3249;SDS011;1637;42.020;23.992;2022-09-13T01:03:39;9.83;;;7.50;;
3249;SDS011;1637;42.020;23.992;2022-09-13T01:06:09;7.73;;;6.93;;
3249;SDS011;1637;42.020;23.992;2022-09-13T01:08:40;8.60;;;6.80;;
3249;SDS011;1637;42.020;23.992;2022-09-13T01:11:14;7.03;;;6.33;;
3249;SDS011;1637;42.020;23.992;2022-09-13T01:13:45;8.67;;;7.47;;
3249;SDS011;1637;42.020;23.992;2022-09-13T01:16:15;9.00;;;7.20;;
3249;SDS011;1637;42.020;23.992;2022-09-13T01:18:42;8.00;;;7.20;;
3249;SDS011;1637;42.020;23.992;2022-09-13T01:21:18;7.63;;;6.77;;
3249;SDS011;1637;42.020;23.992;2022-09-13T01:24:12;9.13;;;6.87;;
3249;SDS011;1637;42.020;23.992;2022-09-13T01:30:07;10.57;;;7.50;;
3249;SDS011;1637;42.020;23.992;2022-09-13T01:32:41;7.40;;;6.20;;
3249;SDS011;1637;42.020;23.992;2022-09-13T01:35:19;7.83;;;6.60;;
3249;SDS011;1637;42.020;23.992;2022-09-13T01:37:57;12.80;;;7.77;;
3249;SDS011;1637;42.020;23.992;2022-09-13T01:40:47;8.37;;;7.00;;
3249;SDS011;1637;42.020;23.992;2022-09-13T01:43:26;13.03;;;7.70;;
3249;SDS011;1637;42.020;23.992;2022-09-13T01:46:07;8.30;;;7.47;;
3249;SDS011;1637;42.020;23.992;2022-09-13T01:48:45;9.30;;;7.13;;
3249;SDS011;1637;42.020;23.992;2022-09-13T01:51:21;12.73;;;7.33;;
3249;SDS011;1637;42.020;23.992;2022-09-13T01:53:56;10.63;;;7.60;;
3249;SDS011;1637;42.020;23.992;2022-09-13T01:56:31;7.87;;;7.10;;
3249;SDS011;1637;42.020;23.992;2022-09-13T01:59:04;8.43;;;6.90;;
3249;SDS011;1637;42.020;23.992;2022-09-13T02:01:38;8.90;;;7.17;;
3249;SDS011;1637;42.020;23.992;2022-09-13T02:04:12;7.67;;;6.80;;
3249;SDS011;1637;42.020;23.992;2022-09-13T02:06:45;7.10;;;6.40;;
3249;SDS011;1637;42.020;23.992;2022-09-13T02:09:17;8.97;;;7.87;;
3249;SDS011;1637;42.020;23.992;2022-09-13T02:11:48;12.50;;;7.20;;
3249;SDS011;1637;42.020;23.992;2022-09-13T02:14:20;16.30;;;7.50;;
3249;SDS011;1637;42.020;23.992;2022-09-13T02:16:52;12.10;;;9.43;;
3249;SDS011;1637;42.020;23.992;2022-09-13T02:19:24;13.53;;;7.90;;
3249;SDS011;1637;42.020;23.992;2022-09-13T02:21:56;11.73;;;7.53;;
3249;SDS011;1637;42.020;23.992;2022-09-13T02:24:26;9.80;;;7.03;;
3249;SDS011;1637;42.020;23.992;2022-09-13T02:26:58;19.00;;;7.13;;
3249;SDS011;1637;42.020;23.992;2022-09-13T02:29:28;10.50;;;7.37;;
3249;SDS011;1637;42.020;23.992;2022-09-13T02:32:02;14.87;;;7.67;;
3249;SDS011;1637;42.020;23.992;2022-09-13T02:34:35;9.13;;;6.97;;
3249;SDS011;1637;42.020;23.992;2022-09-13T02:37:05;9.33;;;6.97;;
3249;SDS011;1637;42.020;23.992;2022-09-13T02:39:35;13.53;;;6.93;;
3249;SDS011;1637;42.020;23.992;2022-09-13T02:42:07;13.63;;;7.13;;
3249;SDS011;1637;42.020;23.992;2022-09-13T02:44:40;8.80;;;7.60;;
3249;SDS011;1637;42.020;23.992;2022-09-13T02:47:13;11.67;;;9.00;;
3249;SDS011;1637;42.020;23.992;2022-09-13T02:49:53;11.00;;;7.70;;
3249;SDS011;1637;42.020;23.992;2022-09-13T02:52:27;13.53;;;7.80;;
3249;SDS011;1637;42.020;23.992;2022-09-13T02:55:04;11.47;;;7.30;;
3249;SDS011;1637;42.020;23.992;2022-09-13T02:57:45;9.10;;;7.33;;
3249;SDS011;1637;42.020;23.992;2022-09-13T03:00:21;10.43;;;7.83;;
3249;SDS011;1637;42.020;23.992;2022-09-13T03:02:49;8.73;;;6.97;;
3249;SDS011;1637;42.020;23.992;2022-09-13T03:05:19;12.97;;;7.17;;
3249;SDS011;1637;42.020;23.992;2022-09-13T03:07:46;8.50;;;7.50;;
3249;SDS011;1637;42.020;23.992;2022-09-13T03:10:13;9.17;;;8.17;;
3249;SDS011;1637;42.020;23.992;2022-09-13T03:12:54;11.23;;;8.23;;
3249;SDS011;1637;42.020;23.992;2022-09-13T03:15:47;14.13;;;7.90;;
3249;SDS011;1637;42.020;23.992;2022-09-13T03:18:32;11.23;;;8.03;;
3249;SDS011;1637;42.020;23.992;2022-09-13T03:21:21;17.20;;;9.77;;
3249;SDS011;1637;42.020;23.992;2022-09-13T03:24:08;67.70;;;33.37;;
3249;SDS011;1637;42.020;23.992;2022-09-13T03:26:48;24.50;;;15.47;;
3249;SDS011;1637;42.020;23.992;2022-09-13T03:29:30;17.70;;;12.47;;
3249;SDS011;1637;42.020;23.992;2022-09-13T03:32:09;11.73;;;8.10;;
3249;SDS011;1637;42.020;23.992;2022-09-13T03:34:49;17.90;;;11.47;;
3249;SDS011;1637;42.020;23.992;2022-09-13T03:37:22;12.93;;;9.63;;
3249;SDS011;1637;42.020;23.992;2022-09-13T03:39:55;16.93;;;11.10;;
3249;SDS011;1637;42.020;23.992;2022-09-13T03:42:27;13.70;;;10.20;;
3249;SDS011;1637;42.020;23.992;2022-09-13T03:44:59;13.30;;;9.37;;
3249;SDS011;1637;42.020;23.992;2022-09-13T03:47:29;15.50;;;8.37;;
3249;SDS011;1637;42.020;23.992;2022-09-13T03:50:00;12.50;;;8.60;;
3249;SDS011;1637;42.020;23.992;2022-09-13T03:52:27;10.87;;;7.00;;
3249;SDS011;1637;42.020;23.992;2022-09-13T03:54:55;22.67;;;12.53;;
3249;SDS011;1637;42.020;23.992;2022-09-13T03:57:23;12.43;;;8.70;;
3249;SDS011;1637;42.020;23.992;2022-09-13T03:59:50;11.77;;;9.13;;
3249;SDS011;1637;42.020;23.992;2022-09-13T04:02:19;18.07;;;11.23;;
3249;SDS011;1637;42.020;23.992;2022-09-13T04:04:47;15.43;;;10.90;;
3249;SDS011;1637;42.020;23.992;2022-09-13T04:07:17;14.00;;;8.83;;
3249;SDS011;1637;42.020;23.992;2022-09-13T04:09:45;11.97;;;8.90;;
3249;SDS011;1637;42.020;23.992;2022-09-13T04:12:12;13.37;;;8.50;;
3249;SDS011;1637;42.020;23.992;2022-09-13T04:14:39;11.63;;;8.60;;
3249;SDS011;1637;42.020;23.992;2022-09-13T04:17:07;11.20;;;7.77;;
3249;SDS011;1637;42.020;23.992;2022-09-13T04:19:34;31.33;;;15.10;;
3249;SDS011;1637;42.020;23.992;2022-09-13T04:22:01;17.23;;;10.70;;
3249;SDS011;1637;42.020;23.992;2022-09-13T04:24:29;14.67;;;8.90;;
3249;SDS011;1637;42.020;23.992;2022-09-13T04:26:56;18.73;;;8.53;;
3249;SDS011;1637;42.020;23.992;2022-09-13T04:29:24;9.20;;;7.17;;
3249;SDS011;1637;42.020;23.992;2022-09-13T04:31:52;11.43;;;9.60;;
3249;SDS011;1637;42.020;23.992;2022-09-13T04:34:20;12.30;;;8.70;;
3249;SDS011;1637;42.020;23.992;2022-09-13T04:36:47;12.70;;;8.77;;
3249;SDS011;1637;42.020;23.992;2022-09-13T04:39:15;47.20;;;28.67;;
3249;SDS011;1637;42.020;23.992;2022-09-13T04:41:43;12.53;;;8.73;;
3249;SDS011;1637;42.020;23.992;2022-09-13T04:44:11;11.40;;;7.43;;
3249;SDS011;1637;42.020;23.992;2022-09-13T04:46:38;23.27;;;8.23;;
3249;SDS011;1637;42.020;23.992;2022-09-13T04:49:05;8.07;;;7.17;;
3249;SDS011;1637;42.020;23.992;2022-09-13T04:51:32;6.17;;;5.20;;
3249;SDS011;1637;42.020;23.992;2022-09-13T04:53:59;7.10;;;4.87;;
3249;SDS011;1637;42.020;23.992;2022-09-13T04:56:26;7.33;;;5.33;;
3249;SDS011;1637;42.020;23.992;2022-09-13T04:58:54;12.33;;;4.90;;
3249;SDS011;1637;42.020;23.992;2022-09-13T05:01:22;10.83;;;5.73;;
3249;SDS011;1637;42.020;23.992;2022-09-13T05:03:49;8.17;;;6.10;;
3249;SDS011;1637;42.020;23.992;2022-09-13T05:06:17;12.70;;;5.00;;
3249;SDS011;1637;42.020;23.992;2022-09-13T05:08:48;16.73;;;9.77;;
3249;SDS011;1637;42.020;23.992;2022-09-13T05:11:17;7.73;;;5.67;;
3249;SDS011;1637;42.020;23.992;2022-09-13T05:13:47;4.37;;;3.90;;
3249;SDS011;1637;42.020;23.992;2022-09-13T05:16:18;9.20;;;4.43;;
3249;SDS011;1637;42.020;23.992;2022-09-13T05:18:45;7.63;;;4.30;;
3249;SDS011;1637;42.020;23.992;2022-09-13T05:21:12;8.20;;;5.20;;
3249;SDS011;1637;42.020;23.992;2022-09-13T05:23:39;8.40;;;5.23;;
3249;SDS011;1637;42.020;23.992;2022-09-13T05:26:06;10.60;;;6.20;;
3249;SDS011;1637;42.020;23.992;2022-09-13T05:28:34;12.73;;;5.90;;
3249;SDS011;1637;42.020;23.992;2022-09-13T05:31:03;28.53;;;14.60;;
3249;SDS011;1637;42.020;23.992;2022-09-13T05:33:33;14.10;;;10.00;;
3249;SDS011;1637;42.020;23.992;2022-09-13T05:36:01;10.03;;;5.67;;
3249;SDS011;1637;42.020;23.992;2022-09-13T05:38:28;4.97;;;4.47;;
3249;SDS011;1637;42.020;23.992;2022-09-13T05:40:55;10.80;;;5.00;;
3249;SDS011;1637;42.020;23.992;2022-09-13T05:43:23;5.63;;;4.50;;
3249;SDS011;1637;42.020;23.992;2022-09-13T05:45:50;5.03;;;3.67;;
3249;SDS011;1637;42.020;23.992;2022-09-13T05:48:17;8.87;;;3.93;;
3249;SDS011;1637;42.020;23.992;2022-09-13T05:50:45;6.80;;;4.00;;
3249;SDS011;1637;42.020;23.992;2022-09-13T05:53:12;7.43;;;3.50;;
3249;SDS011;1637;42.020;23.992;2022-09-13T05:55:39;3.70;;;3.37;;
3249;SDS011;1637;42.020;23.992;2022-09-13T05:58:05;5.50;;;4.00;;
3249;SDS011;1637;42.020;23.992;2022-09-13T06:00:32;11.03;;;3.83;;
3249;SDS011;1637;42.020;23.992;2022-09-13T06:02:59;10.90;;;5.37;;
3249;SDS011;1637;42.020;23.992;2022-09-13T06:05:26;6.17;;;5.67;;
3249;SDS011;1637;42.020;23.992;2022-09-13T06:07:54;13.90;;;7.77;;
3249;SDS011;1637;42.020;23.992;2022-09-13T06:10:21;16.80;;;7.47;;
3249;SDS011;1637;42.020;23.992;2022-09-13T06:12:49;7.70;;;6.20;;
3249;SDS011;1637;42.020;23.992;2022-09-13T06:15:16;12.63;;;6.80;;
3249;SDS011;1637;42.020;23.992;2022-09-13T06:17:42;11.40;;;5.60;;
3249;SDS011;1637;42.020;23.992;2022-09-13T06:20:09;5.93;;;5.43;;
3249;SDS011;1637;42.020;23.992;2022-09-13T06:22:36;9.50;;;5.93;;
3249;SDS011;1637;42.020;23.992;2022-09-13T06:25:05;7.60;;;5.50;;
3249;SDS011;1637;42.020;23.992;2022-09-13T06:27:33;12.57;;;6.53;;
3249;SDS011;1637;42.020;23.992;2022-09-13T06:30:00;8.40;;;7.53;;
3249;SDS011;1637;42.020;23.992;2022-09-13T06:32:27;10.43;;;6.87;;
3249;SDS011;1637;42.020;23.992;2022-09-13T06:34:54;8.13;;;5.30;;
3249;SDS011;1637;42.020;23.992;2022-09-13T06:37:20;59.83;;;28.97;;
3249;SDS011;1637;42.020;23.992;2022-09-13T06:39:47;41.83;;;23.83;;
3249;SDS011;1637;42.020;23.992;2022-09-13T06:42:15;22.33;;;14.43;;
3249;SDS011;1637;42.020;23.992;2022-09-13T06:44:42;12.37;;;7.57;;
3249;SDS011;1637;42.020;23.992;2022-09-13T06:47:10;15.20;;;8.93;;
3249;SDS011;1637;42.020;23.992;2022-09-13T06:49:37;12.13;;;7.20;;
3249;SDS011;1637;42.020;23.992;2022-09-13T06:52:04;17.47;;;8.60;;
3249;SDS011;1637;42.020;23.992;2022-09-13T06:54:31;11.27;;;7.80;;
3249;SDS011;1637;42.020;23.992;2022-09-13T06:56:58;11.23;;;9.47;;
3249;SDS011;1637;42.020;23.992;2022-09-13T06:59:28;11.73;;;8.00;;
3249;SDS011;1637;42.020;23.992;2022-09-13T07:01:55;10.20;;;7.40;;
3249;SDS011;1637;42.020;23.992;2022-09-13T07:04:22;10.13;;;5.40;;
3249;SDS011;1637;42.020;23.992;2022-09-13T07:06:49;5.90;;;5.30;;
3249;SDS011;1637;42.020;23.992;2022-09-13T07:09:16;5.73;;;5.13;;
3249;SDS011;1637;42.020;23.992;2022-09-13T07:11:45;6.70;;;4.97;;
3249;SDS011;1637;42.020;23.992;2022-09-13T07:14:13;4.20;;;3.90;;
3249;SDS011;1637;42.020;23.992;2022-09-13T07:16:43;5.97;;;4.23;;
3249;SDS011;1637;42.020;23.992;2022-09-13T07:19:12;8.30;;;4.53;;
3249;SDS011;1637;42.020;23.992;2022-09-13T07:21:40;5.97;;;4.63;;
3249;SDS011;1637;42.020;23.992;2022-09-13T07:24:07;4.13;;;3.60;;
3249;SDS011;1637;42.020;23.992;2022-09-13T07:26:35;12.13;;;5.80;;
3249;SDS011;1637;42.020;23.992;2022-09-13T07:29:03;5.77;;;5.17;;
3249;SDS011;1637;42.020;23.992;2022-09-13T07:31:33;7.50;;;4.87;;
3249;SDS011;1637;42.020;23.992;2022-09-13T07:34:03;15.90;;;6.00;;
3249;SDS011;1637;42.020;23.992;2022-09-13T07:36:33;5.43;;;3.50;;
3249;SDS011;1637;42.020;23.992;2022-09-13T07:39:01;3.67;;;3.40;;
3249;SDS011;1637;42.020;23.992;2022-09-13T07:41:28;6.00;;;3.73;;
3249;SDS011;1637;42.020;23.992;2022-09-13T07:43:57;3.40;;;3.10;;
3249;SDS011;1637;42.020;23.992;2022-09-13T07:46:26;3.70;;;3.40;;
3249;SDS011;1637;42.020;23.992;2022-09-13T07:48:56;3.37;;;2.80;;
3249;SDS011;1637;42.020;23.992;2022-09-13T07:51:26;4.43;;;3.27;;
3249;SDS011;1637;42.020;23.992;2022-09-13T07:53:56;3.73;;;3.43;;
3249;SDS011;1637;42.020;23.992;2022-09-13T07:56:24;6.70;;;3.20;;
3249;SDS011;1637;42.020;23.992;2022-09-13T07:58:53;3.70;;;3.40;;
3249;SDS011;1637;42.020;23.992;2022-09-13T08:01:20;10.30;;;3.90;;
3249;SDS011;1637;42.020;23.992;2022-09-13T08:03:52;7.17;;;2.90;;
3249;SDS011;1637;42.020;23.992;2022-09-13T08:06:19;4.30;;;3.20;;
3249;SDS011;1637;42.020;23.992;2022-09-13T08:08:48;4.17;;;3.10;;
3249;SDS011;1637;42.020;23.992;2022-09-13T08:11:16;7.50;;;3.30;;
3249;SDS011;1637;42.020;23.992;2022-09-13T08:13:44;3.47;;;3.17;;
3249;SDS011;1637;42.020;23.992;2022-09-13T08:16:12;3.03;;;2.73;;
3249;SDS011;1637;42.020;23.992;2022-09-13T08:18:42;3.30;;;2.40;;
3249;SDS011;1637;42.020;23.992;2022-09-13T08:21:10;2.93;;;2.40;;
3249;SDS011;1637;42.020;23.992;2022-09-13T08:23:37;7.00;;;2.70;;
3249;SDS011;1637;42.020;23.992;2022-09-13T08:26:05;2.77;;;2.57;;
3249;SDS011;1637;42.020;23.992;2022-09-13T08:28:33;2.40;;;2.17;;
3249;SDS011;1637;42.020;23.992;2022-09-13T08:31:04;5.73;;;2.23;;
3249;SDS011;1637;42.020;23.992;2022-09-13T08:33:32;1.83;;;1.73;;
3249;SDS011;1637;42.020;23.992;2022-09-13T08:35:59;4.03;;;1.80;;
3249;SDS011;1637;42.020;23.992;2022-09-13T08:38:26;4.30;;;1.90;;
3249;SDS011;1637;42.020;23.992;2022-09-13T08:40:55;1.83;;;1.53;;
3249;SDS011;1637;42.020;23.992;2022-09-13T08:43:33;1.70;;;1.60;;
3249;SDS011;1637;42.020;23.992;2022-09-13T08:46:09;2.90;;;1.93;;
3249;SDS011;1637;42.020;23.992;2022-09-13T08:48:46;3.23;;;2.37;;
3249;SDS011;1637;42.020;23.992;2022-09-13T08:51:23;2.60;;;1.80;;
3249;SDS011;1637;42.020;23.992;2022-09-13T08:53:57;4.07;;;3.00;;
3249;SDS011;1637;42.020;23.992;2022-09-13T08:56:26;4.20;;;2.90;;
3249;SDS011;1637;42.020;23.992;2022-09-13T08:59:08;3.70;;;2.53;;
3249;SDS011;1637;42.020;23.992;2022-09-13T09:01:51;2.20;;;1.60;;
3249;SDS011;1637;42.020;23.992;2022-09-13T09:04:30;7.30;;;1.80;;
3249;SDS011;1637;42.020;23.992;2022-09-13T09:07:04;2.83;;;2.63;;
3249;SDS011;1637;42.020;23.992;2022-09-13T09:09:36;7.43;;;2.20;;
3249;SDS011;1637;42.020;23.992;2022-09-13T09:12:10;4.77;;;2.87;;
3249;SDS011;1637;42.020;23.992;2022-09-13T09:14:44;2.13;;;1.60;;
3249;SDS011;1637;42.020;23.992;2022-09-13T09:17:19;1.73;;;1.50;;
3249;SDS011;1637;42.020;23.992;2022-09-13T09:19:51;2.00;;;1.80;;
3249;SDS011;1637;42.020;23.992;2022-09-13T09:22:24;1.60;;;1.40;;
3249;SDS011;1637;42.020;23.992;2022-09-13T09:24:58;1.43;;;1.33;;
3249;SDS011;1637;42.020;23.992;2022-09-13T09:27:28;5.57;;;3.20;;
3249;SDS011;1637;42.020;23.992;2022-09-13T09:29:57;8.20;;;3.50;;
3249;SDS011;1637;42.020;23.992;2022-09-13T09:32:32;2.37;;;2.17;;
3249;SDS011;1637;42.020;23.992;2022-09-13T09:35:13;2.47;;;2.20;;
3249;SDS011;1637;42.020;23.992;2022-09-13T09:37:49;6.67;;;6.07;;
3249;SDS011;1637;42.020;23.992;2022-09-13T09:40:26;3.33;;;2.20;;
3249;SDS011;1637;42.020;23.992;2022-09-13T09:42:54;14.73;;;3.73;;
3249;SDS011;1637;42.020;23.992;2022-09-13T09:45:24;8.33;;;3.67;;
3249;SDS011;1637;42.020;23.992;2022-09-13T09:47:53;3.43;;;2.17;;
3249;SDS011;1637;42.020;23.992;2022-09-13T09:50:22;4.37;;;1.97;;
3249;SDS011;1637;42.020;23.992;2022-09-13T09:52:55;1.60;;;1.50;;
3249;SDS011;1637;42.020;23.992;2022-09-13T09:55:27;2.40;;;1.67;;
3249;SDS011;1637;42.020;23.992;2022-09-13T09:57:56;3.30;;;2.30;;
3249;SDS011;1637;42.020;23.992;2022-09-13T10:00:26;6.43;;;2.73;;
3249;SDS011;1637;42.020;23.992;2022-09-13T10:02:56;2.97;;;2.77;;
3249;SDS011;1637;42.020;23.992;2022-09-13T10:05:25;31.13;;;12.10;;
3249;SDS011;1637;42.020;23.992;2022-09-13T10:07:54;7.80;;;4.90;;
3249;SDS011;1637;42.020;23.992;2022-09-13T10:10:25;5.80;;;5.30;;
3249;SDS011;1637;42.020;23.992;2022-09-13T10:12:58;8.33;;;5.77;;
3249;SDS011;1637;42.020;23.992;2022-09-13T10:15:28;3.00;;;2.27;;
3249;SDS011;1637;42.020;23.992;2022-09-13T10:20:58;3.80;;;2.60;;
3249;SDS011;1637;42.020;23.992;2022-09-13T10:23:28;3.53;;;3.20;;
3249;SDS011;1637;42.020;23.992;2022-09-13T10:25:56;5.93;;;2.50;;
3249;SDS011;1637;42.020;23.992;2022-09-13T10:28:28;2.80;;;2.07;;
3249;SDS011;1637;42.020;23.992;2022-09-13T10:30:58;7.20;;;6.50;;
3249;SDS011;1637;42.020;23.992;2022-09-13T10:33:30;4.20;;;3.80;;
3249;SDS011;1637;42.020;23.992;2022-09-13T10:35:59;2.90;;;2.70;;
3249;SDS011;1637;42.020;23.992;2022-09-13T10:38:31;7.77;;;6.10;;
3249;SDS011;1637;42.020;23.992;2022-09-13T10:41:00;7.23;;;2.93;;
3249;SDS011;1637;42.020;23.992;2022-09-13T10:43:30;4.47;;;3.80;;
3249;SDS011;1637;42.020;23.992;2022-09-13T10:46:00;10.33;;;3.73;;
3249;SDS011;1637;42.020;23.992;2022-09-13T10:48:29;5.60;;;3.00;;
3249;SDS011;1637;42.020;23.992;2022-09-13T10:51:16;16.73;;;5.83;;
3249;SDS011;1637;42.020;23.992;2022-09-13T10:54:05;8.40;;;1.70;;
3249;SDS011;1637;42.020;23.992;2022-09-13T10:56:34;1.67;;;1.50;;
3249;SDS011;1637;42.020;23.992;2022-09-13T10:59:13;5.50;;;1.63;;
3249;SDS011;1637;42.020;23.992;2022-09-13T11:01:44;3.37;;;1.60;;
3249;SDS011;1637;42.020;23.992;2022-09-13T11:07:36;1.60;;;1.10;;
3249;SDS011;1637;42.020;23.992;2022-09-13T11:10:23;3.87;;;2.10;;
3249;SDS011;1637;42.020;23.992;2022-09-13T11:12:59;2.23;;;1.60;;
3249;SDS011;1637;42.020;23.992;2022-09-13T11:15:36;52.80;;;21.10;;
3249;SDS011;1637;42.020;23.992;2022-09-13T11:18:21;27.60;;;13.40;;
3249;SDS011;1637;42.020;23.992;2022-09-13T11:20:57;19.63;;;9.73;;
3249;SDS011;1637;42.020;23.992;2022-09-13T11:23:38;8.93;;;3.40;;
3249;SDS011;1637;42.020;23.992;2022-09-13T11:26:26;5.70;;;2.80;;
3249;SDS011;1637;42.020;23.992;2022-09-13T11:29:05;1.90;;;1.50;;
3249;SDS011;1637;42.020;23.992;2022-09-13T11:31:47;3.70;;;1.70;;
3249;SDS011;1637;42.020;23.992;2022-09-13T11:34:27;2.50;;;1.60;;
3249;SDS011;1637;42.020;23.992;2022-09-13T11:37:14;2.60;;;2.00;;
3249;SDS011;1637;42.020;23.992;2022-09-13T11:39:50;9.30;;;3.60;;
3249;SDS011;1637;42.020;23.992;2022-09-13T11:42:30;1.47;;;1.37;;
3249;SDS011;1637;42.020;23.992;2022-09-13T11:45:14;3.00;;;1.77;;
3249;SDS011;1637;42.020;23.992;2022-09-13T11:47:55;31.97;;;10.63;;
3249;SDS011;1637;42.020;23.992;2022-09-13T11:50:38;34.80;;;15.97;;
3249;SDS011;1637;42.020;23.992;2022-09-13T11:53:16;3.20;;;1.90;;
3249;SDS011;1637;42.020;23.992;2022-09-13T11:55:54;2.77;;;1.70;;
3249;SDS011;1637;42.020;23.992;2022-09-13T11:58:27;7.83;;;2.37;;
3249;SDS011;1637;42.020;23.992;2022-09-13T12:00:59;7.90;;;1.90;;
3249;SDS011;1637;42.020;23.992;2022-09-13T12:03:32;8.73;;;2.40;;
3249;SDS011;1637;42.020;23.992;2022-09-13T12:06:06;2.17;;;1.97;;
3249;SDS011;1637;42.020;23.992;2022-09-13T12:08:41;3.37;;;1.70;;
3249;SDS011;1637;42.020;23.992;2022-09-13T12:11:12;7.93;;;4.80;;
3249;SDS011;1637;42.020;23.992;2022-09-13T12:13:45;4.43;;;2.00;;
3249;SDS011;1637;42.020;23.992;2022-09-13T12:16:19;1.63;;;1.50;;
3249;SDS011;1637;42.020;23.992;2022-09-13T12:18:49;2.57;;;2.20;;
3249;SDS011;1637;42.020;23.992;2022-09-13T12:21:20;6.43;;;1.90;;
3249;SDS011;1637;42.020;23.992;2022-09-13T12:23:50;2.60;;;1.73;;
3249;SDS011;1637;42.020;23.992;2022-09-13T12:26:24;4.10;;;2.10;;
3249;SDS011;1637;42.020;23.992;2022-09-13T12:28:56;3.60;;;2.17;;
3249;SDS011;1637;42.020;23.992;2022-09-13T12:31:27;2.07;;;1.97;;
3249;SDS011;1637;42.020;23.992;2022-09-13T12:33:56;3.50;;;1.67;;
3249;SDS011;1637;42.020;23.992;2022-09-13T12:36:47;1.83;;;1.63;;
3249;SDS011;1637;42.020;23.992;2022-09-13T12:42:29;4.90;;;1.80;;
3249;SDS011;1637;42.020;23.992;2022-09-13T12:45:27;4.17;;;2.27;;
3249;SDS011;1637;42.020;23.992;2022-09-13T12:48:17;3.00;;;1.60;;
3249;SDS011;1637;42.020;23.992;2022-09-13T12:50:59;2.73;;;1.50;;
3249;SDS011;1637;42.020;23.992;2022-09-13T12:53:48;2.00;;;1.90;;
3249;SDS011;1637;42.020;23.992;2022-09-13T12:56:39;1.83;;;1.40;;
3249;SDS011;1637;42.020;23.992;2022-09-13T13:02:28;2.00;;;1.30;;
3249;SDS011;1637;42.020;23.992;2022-09-13T13:04:59;5.53;;;2.40;;
3249;SDS011;1637;42.020;23.992;2022-09-13T13:07:29;1.43;;;1.33;;
3249;SDS011;1637;42.020;23.992;2022-09-13T13:10:00;5.93;;;1.77;;
3249;SDS011;1637;42.020;23.992;2022-09-13T13:12:28;5.57;;;1.63;;
3249;SDS011;1637;42.020;23.992;2022-09-13T13:14:57;1.77;;;1.63;;
3249;SDS011;1637;42.020;23.992;2022-09-13T13:17:41;4.77;;;1.90;;
3249;SDS011;1637;42.020;23.992;2022-09-13T13:23:14;3.20;;;2.73;;
3249;SDS011;1637;42.020;23.992;2022-09-13T13:25:55;2.60;;;1.80;;
3249;SDS011;1637;42.020;23.992;2022-09-13T13:31:36;7.47;;;4.13;;
3249;SDS011;1637;42.020;23.992;2022-09-13T13:36:56;2.20;;;1.60;;
3249;SDS011;1637;42.020;23.992;2022-09-13T13:39:34;4.23;;;1.60;;
3249;SDS011;1637;42.020;23.992;2022-09-13T13:42:10;1.80;;;1.30;;
3249;SDS011;1637;42.020;23.992;2022-09-13T13:53:44;3.03;;;1.50;;
3249;SDS011;1637;42.020;23.992;2022-09-13T13:56:18;3.87;;;1.43;;
3249;SDS011;1637;42.020;23.992;2022-09-13T13:58:51;5.30;;;1.70;;
3249;SDS011;1637;42.020;23.992;2022-09-13T14:01:23;4.70;;;1.50;;
3249;SDS011;1637;42.020;23.992;2022-09-13T14:04:04;15.80;;;4.20;;
3249;SDS011;1637;42.020;23.992;2022-09-13T14:06:50;2.10;;;1.90;;
3249;SDS011;1637;42.020;23.992;2022-09-13T14:09:27;4.80;;;1.40;;
3249;SDS011;1637;42.020;23.992;2022-09-13T14:12:15;1.50;;;1.10;;
3249;SDS011;1637;42.020;23.992;2022-09-13T14:14:55;13.07;;;1.73;;
3249;SDS011;1637;42.020;23.992;2022-09-13T14:20:27;1.20;;;1.07;;
3249;SDS011;1637;42.020;23.992;2022-09-13T14:25:36;10.03;;;4.00;;
3249;SDS011;1637;42.020;23.992;2022-09-13T14:28:05;1.47;;;1.30;;
3249;SDS011;1637;42.020;23.992;2022-09-13T14:30:34;5.80;;;1.30;;
3249;SDS011;1637;42.020;23.992;2022-09-13T14:33:03;1.50;;;1.40;;
3249;SDS011;1637;42.020;23.992;2022-09-13T14:35:31;1.30;;;1.20;;
3249;SDS011;1637;42.020;23.992;2022-09-13T14:38:10;3.87;;;1.30;;
3249;SDS011;1637;42.020;23.992;2022-09-13T14:40:38;1.80;;;1.40;;
3249;SDS011;1637;42.020;23.992;2022-09-13T14:43:13;1.40;;;1.30;;
3249;SDS011;1637;42.020;23.992;2022-09-13T14:45:42;2.23;;;1.40;;
3249;SDS011;1637;42.020;23.992;2022-09-13T14:48:14;2.43;;;2.13;;
3249;SDS011;1637;42.020;23.992;2022-09-13T14:50:46;2.33;;;2.13;;
3249;SDS011;1637;42.020;23.992;2022-09-13T14:53:17;1.93;;;1.37;;
3249;SDS011;1637;42.020;23.992;2022-09-13T14:55:48;1.50;;;1.33;;
3249;SDS011;1637;42.020;23.992;2022-09-13T14:58:18;1.63;;;1.37;;
3249;SDS011;1637;42.020;23.992;2022-09-13T15:00:50;3.13;;;1.60;;
3249;SDS011;1637;42.020;23.992;2022-09-13T15:03:21;1.37;;;1.10;;
3249;SDS011;1637;42.020;23.992;2022-09-13T15:05:49;1.73;;;1.43;;
3249;SDS011;1637;42.020;23.992;2022-09-13T15:08:38;8.10;;;3.17;;
3249;SDS011;1637;42.020;23.992;2022-09-13T15:11:13;3.13;;;1.70;;
3249;SDS011;1637;42.020;23.992;2022-09-13T15:13:42;1.97;;;1.50;;
3249;SDS011;1637;42.020;23.992;2022-09-13T15:16:27;2.90;;;1.20;;
3249;SDS011;1637;42.020;23.992;2022-09-13T15:19:14;2.50;;;1.30;;
3249;SDS011;1637;42.020;23.992;2022-09-13T15:21:42;2.23;;;1.60;;
3249;SDS011;1637;42.020;23.992;2022-09-13T15:24:13;7.87;;;2.43;;
3249;SDS011;1637;42.020;23.992;2022-09-13T15:26:46;16.30;;;8.77;;
3249;SDS011;1637;42.020;23.992;2022-09-13T15:29:14;34.83;;;16.53;;
3249;SDS011;1637;42.020;23.992;2022-09-13T15:31:45;15.53;;;8.10;;
3249;SDS011;1637;42.020;23.992;2022-09-13T15:34:18;3.70;;;2.07;;
3249;SDS011;1637;42.020;23.992;2022-09-13T15:37:00;3.00;;;1.80;;
3249;SDS011;1637;42.020;23.992;2022-09-13T15:39:40;1.60;;;1.50;;
3249;SDS011;1637;42.020;23.992;2022-09-13T15:42:08;2.87;;;2.10;;
3249;SDS011;1637;42.020;23.992;2022-09-13T15:44:35;7.43;;;1.40;;
3249;SDS011;1637;42.020;23.992;2022-09-13T15:47:07;8.93;;;2.70;;
3249;SDS011;1637;42.020;23.992;2022-09-13T15:49:36;1.90;;;1.70;;
3249;SDS011;1637;42.020;23.992;2022-09-13T15:52:05;4.80;;;1.93;;
3249;SDS011;1637;42.020;23.992;2022-09-13T15:54:33;5.00;;;1.60;;
3249;SDS011;1637;42.020;23.992;2022-09-13T15:57:01;1.53;;;1.33;;
3249;SDS011;1637;42.020;23.992;2022-09-13T15:59:32;2.03;;;1.50;;
3249;SDS011;1637;42.020;23.992;2022-09-13T16:01:59;1.90;;;1.70;;
3249;SDS011;1637;42.020;23.992;2022-09-13T16:04:29;3.30;;;2.40;;